createdAt,value
2018-06-19T00:00:12.309Z,97647.00
2018-06-19T00:02:54.986Z,97648.00
2018-06-19T00:05:36.331Z,97647.00
2018-06-19T00:08:18.289Z,97657.00
2018-06-19T00:10:59.614Z,97652.00
2018-06-19T00:13:41.813Z,97656.00
2018-06-19T00:19:40.413Z,97656.00
2018-06-19T00:22:22.397Z,97647.00
2018-06-19T00:25:03.925Z,97651.00
2018-06-19T00:27:45.189Z,97659.00
2018-06-19T00:30:27.191Z,97658.00
2018-06-19T00:33:08.523Z,97663.00
2018-06-19T00:35:49.662Z,97662.00
2018-06-19T00:38:31.871Z,97667.00
2018-06-19T00:41:13.362Z,97651.00
2018-06-19T00:43:55.408Z,97660.00
2018-06-19T00:46:39.593Z,97657.00
2018-06-19T00:49:21.523Z,97650.00
2018-06-19T00:52:02.837Z,97661.00
2018-06-19T00:54:44.111Z,97654.00
2018-06-19T00:57:25.844Z,97668.00
2018-06-19T01:00:07.399Z,97665.00
2018-06-19T01:02:48.849Z,97671.00
2018-06-19T01:05:30.180Z,97669.00
2018-06-19T01:08:11.704Z,97667.00
2018-06-19T01:10:54.300Z,97671.00
2018-06-19T01:13:35.627Z,97668.00
2018-06-19T01:16:16.946Z,97669.00
2018-06-19T01:18:58.478Z,97672.00
2018-06-19T01:21:39.861Z,97673.00
2018-06-19T01:24:21.432Z,97674.00
2018-06-19T01:27:02.945Z,97675.00
2018-06-19T01:29:45.235Z,97674.00
2018-06-19T01:32:27.009Z,97688.00
2018-06-19T01:35:08.445Z,97681.00
2018-06-19T01:37:49.952Z,97679.00
2018-06-19T01:40:31.408Z,97681.00
2018-06-19T01:43:12.735Z,97680.00
2018-06-19T01:45:54.258Z,97687.00
2018-06-19T01:48:35.556Z,97674.00
2018-06-19T01:51:16.883Z,97675.00
2018-06-19T01:53:58.339Z,97676.00
2018-06-19T01:56:39.725Z,97680.00
2018-06-19T02:02:43.027Z,97674.00
2018-06-19T02:05:25.011Z,97672.00
2018-06-19T02:08:06.306Z,97672.00
2018-06-19T02:10:47.606Z,97671.00
2018-06-19T02:13:28.928Z,97673.00
2018-06-19T02:16:10.260Z,97673.00
2018-06-19T02:18:52.129Z,97669.00
2018-06-19T02:21:33.437Z,97666.00
2018-06-19T02:24:14.806Z,97672.00
2018-06-19T02:26:56.127Z,97675.00
2018-06-19T02:29:37.777Z,97684.00
2018-06-19T02:32:19.175Z,97678.00
2018-06-19T02:35:00.588Z,97685.00
2018-06-19T02:37:41.988Z,97690.00
2018-06-19T02:40:23.392Z,97696.00
2018-06-19T02:43:04.782Z,97684.00
2018-06-19T02:45:46.116Z,97692.00
2018-06-19T02:48:27.413Z,97698.00
2018-06-19T02:51:08.952Z,97696.00
2018-06-19T02:53:50.679Z,97703.00
2018-06-19T02:56:32.046Z,97705.00
2018-06-19T02:59:13.328Z,97709.00
2018-06-19T03:01:55.052Z,97704.00
2018-06-19T03:04:36.259Z,97705.00
2018-06-19T03:07:17.510Z,97705.00
2018-06-19T03:09:58.932Z,97708.00
2018-06-19T03:12:40.285Z,97712.00
2018-06-19T03:15:23.421Z,97717.00
2018-06-19T03:18:04.568Z,97715.00
2018-06-19T03:20:45.865Z,97711.00
2018-06-19T03:23:27.191Z,97716.00
2018-06-19T03:26:08.716Z,97720.00
2018-06-19T03:28:50.588Z,97716.00
2018-06-19T03:31:31.988Z,97718.00
2018-06-19T03:34:13.440Z,97727.00
2018-06-19T03:36:55.802Z,97720.00
2018-06-19T03:39:37.128Z,97728.00
2018-06-19T03:42:18.598Z,97732.00
2018-06-19T03:45:00.500Z,97732.00
2018-06-19T03:47:42.056Z,97722.00
2018-06-19T03:50:24.320Z,97730.00
2018-06-19T03:53:05.959Z,97724.00
2018-06-19T03:55:47.192Z,97735.00
2018-06-19T03:58:28.605Z,97734.00
2018-06-19T04:01:10.053Z,97736.00
2018-06-19T04:03:52.056Z,97735.00
2018-06-19T04:06:33.546Z,97740.00
2018-06-19T04:09:14.877Z,97745.00
2018-06-19T04:11:56.440Z,97742.00
2018-06-19T04:14:37.911Z,97734.00
2018-06-19T04:17:25.001Z,97747.00
2018-06-19T04:20:06.360Z,97750.00
2018-06-19T04:22:47.762Z,97748.00
2018-06-19T04:25:29.085Z,97754.00
2018-06-19T04:28:10.735Z,97756.00
2018-06-19T04:30:53.772Z,97760.00
2018-06-19T04:33:35.239Z,97754.00
2018-06-19T04:36:16.612Z,97765.00
2018-06-19T04:38:57.944Z,97768.00
2018-06-19T04:41:39.401Z,97776.00
2018-06-19T04:44:21.585Z,97779.00
2018-06-19T04:47:03.375Z,97779.00
2018-06-19T04:49:44.853Z,97777.00
2018-06-19T04:52:26.328Z,97779.00
2018-06-19T04:55:07.693Z,97790.00
2018-06-19T04:57:49.342Z,97793.00
2018-06-19T05:00:31.251Z,97791.00
2018-06-19T05:03:12.218Z,97791.00
2018-06-19T05:05:53.433Z,97798.00
2018-06-19T05:08:34.789Z,97789.00
2018-06-19T05:11:16.365Z,97792.00
2018-06-19T05:13:57.706Z,97794.00
2018-06-19T05:16:39.728Z,97795.00
2018-06-19T05:19:21.608Z,97802.00
2018-06-19T05:22:03.187Z,97801.00
2018-06-19T05:24:44.475Z,97801.00
2018-06-19T05:27:26.232Z,97809.00
2018-06-19T05:30:07.559Z,97814.00
2018-06-19T05:32:48.923Z,97814.00
2018-06-19T05:35:30.605Z,97814.00
2018-06-19T05:38:11.988Z,97815.00
2018-06-19T05:40:53.752Z,97816.00
2018-06-19T05:43:35.567Z,97820.00
2018-06-19T05:46:17.093Z,97824.00
2018-06-19T05:48:59.213Z,97824.00
2018-06-19T05:51:40.590Z,97820.00
2018-06-19T05:54:22.748Z,97830.00
2018-06-19T05:57:04.200Z,97823.00
2018-06-19T05:59:45.493Z,97838.00
2018-06-19T06:02:26.860Z,97841.00
2018-06-19T06:05:08.227Z,97839.00
2018-06-19T06:07:49.531Z,97846.00
2018-06-19T06:10:31.043Z,97842.00
2018-06-19T06:13:12.472Z,97840.00
2018-06-19T06:15:55.231Z,97839.00
2018-06-19T06:18:36.731Z,97838.00
2018-06-19T06:21:18.148Z,97832.00
2018-06-19T06:23:59.761Z,97828.00
2018-06-19T06:26:41.171Z,97831.00
2018-06-19T06:29:23.840Z,97830.00
2018-06-19T06:32:05.333Z,97827.00
2018-06-19T06:34:46.792Z,97834.00
2018-06-19T06:37:28.573Z,97834.00
2018-06-19T06:40:09.988Z,97844.00
2018-06-19T06:42:53.857Z,97841.00
2018-06-19T06:45:36.067Z,97839.00
2018-06-19T06:48:17.557Z,97833.00
2018-06-19T06:50:59.183Z,97844.00
2018-06-19T06:53:40.657Z,97844.00
2018-06-19T06:56:22.513Z,97851.00
2018-06-19T06:59:10.776Z,97851.00
2018-06-19T07:01:52.542Z,97852.00
2018-06-19T07:04:33.998Z,97847.00
2018-06-19T07:07:15.323Z,97853.00
2018-06-19T07:09:56.606Z,97844.00
2018-06-19T07:12:37.925Z,97844.00
2018-06-19T07:15:19.255Z,97844.00
2018-06-19T07:18:00.675Z,97845.00
2018-06-19T07:20:42.194Z,97846.00
2018-06-19T07:23:23.894Z,97844.00
2018-06-19T07:26:05.165Z,97842.00
2018-06-19T07:28:46.589Z,97838.00
2018-06-19T07:31:27.977Z,97841.00
2018-06-19T07:34:09.513Z,97831.00
2018-06-19T07:36:50.993Z,97837.00
2018-06-19T07:39:32.248Z,97843.00
2018-06-19T07:42:13.686Z,97847.00
2018-06-19T07:44:55.605Z,97844.00
2018-06-19T07:47:36.943Z,97851.00
2018-06-19T07:50:18.366Z,97845.00
2018-06-19T07:53:00.640Z,97844.00
2018-06-19T07:55:42.100Z,97848.00
2018-06-19T07:58:23.988Z,97850.00
2018-06-19T08:01:05.298Z,97855.00
2018-06-19T08:03:46.727Z,97856.00
2018-06-19T08:06:28.054Z,97848.00
2018-06-19T08:09:10.902Z,97853.00
2018-06-19T08:11:54.569Z,97857.00
2018-06-19T08:14:35.971Z,97856.00
2018-06-19T08:17:17.229Z,97854.00
2018-06-19T08:19:58.643Z,97861.00
2018-06-19T08:22:40.017Z,97861.00
2018-06-19T08:25:22.384Z,97864.00
2018-06-19T08:28:03.789Z,97862.00
2018-06-19T08:30:45.120Z,97864.00
2018-06-19T08:33:26.956Z,97868.00
2018-06-19T08:36:08.509Z,97865.00
2018-06-19T08:38:49.816Z,97862.00
2018-06-19T08:41:31.122Z,97869.00
2018-06-19T08:44:12.895Z,97880.00
2018-06-19T08:46:54.988Z,97875.00
2018-06-19T08:49:36.154Z,97870.00
2018-06-19T08:52:17.773Z,97872.00
2018-06-19T08:54:59.070Z,97870.00
2018-06-19T08:57:40.391Z,97871.00
2018-06-19T09:00:22.533Z,97863.00
2018-06-19T09:03:03.888Z,97866.00
2018-06-19T09:05:45.250Z,97865.00
2018-06-19T09:08:26.725Z,97867.00
2018-06-19T09:11:08.105Z,97865.00
2018-06-19T09:13:49.611Z,97861.00
2018-06-19T09:16:30.954Z,97867.00
2018-06-19T09:19:12.282Z,97866.00
2018-06-19T09:21:55.012Z,97861.00
2018-06-19T09:24:36.577Z,97861.00
2018-06-19T09:27:17.908Z,97858.00
2018-06-19T09:29:59.228Z,97857.00
2018-06-19T09:32:40.512Z,97857.00
2018-06-19T09:35:24.205Z,97862.00
2018-06-19T09:38:05.932Z,97862.00
2018-06-19T09:40:47.149Z,97855.00
2018-06-19T09:43:28.454Z,97862.00
2018-06-19T09:46:09.893Z,97861.00
2018-06-19T09:48:51.973Z,97856.00
2018-06-19T09:51:33.573Z,97866.00
2018-06-19T09:54:14.899Z,97873.00
2018-06-19T09:56:56.724Z,97870.00
2018-06-19T09:59:38.035Z,97868.00
2018-06-19T10:02:19.355Z,97863.00
2018-06-19T10:05:00.792Z,97865.00
2018-06-19T10:07:42.143Z,97858.00
2018-06-19T10:10:23.937Z,97857.00
2018-06-19T10:13:05.556Z,97849.00
2018-06-19T10:15:46.862Z,97857.00
2018-06-19T10:18:28.256Z,97856.00
2018-06-19T10:21:09.697Z,97855.00
2018-06-19T10:23:52.169Z,97855.00
2018-06-19T10:26:33.675Z,97860.00
2018-06-19T10:29:15.429Z,97860.00
2018-06-19T10:31:56.728Z,97852.00
2018-06-19T10:34:38.091Z,97846.00
2018-06-19T10:37:19.523Z,97848.00
2018-06-19T10:40:01.793Z,97852.00
2018-06-19T10:42:43.401Z,97846.00
2018-06-19T10:45:25.692Z,97851.00
2018-06-19T10:48:07.462Z,97844.00
2018-06-19T10:50:48.971Z,97844.00
2018-06-19T10:53:30.629Z,97851.00
2018-06-19T10:56:11.995Z,97856.00
2018-06-19T10:58:55.079Z,97841.00
2018-06-19T11:01:36.584Z,97843.00
2018-06-19T11:04:17.973Z,97839.00
2018-06-19T11:06:59.553Z,97840.00
2018-06-19T11:09:41.155Z,97838.00
2018-06-19T11:12:24.185Z,97844.00
2018-06-19T11:15:05.614Z,97837.00
2018-06-19T11:17:46.938Z,97840.00
2018-06-19T11:20:28.416Z,97844.00
2018-06-19T11:23:09.764Z,97832.00
2018-06-19T11:25:51.087Z,97841.00
2018-06-19T11:28:32.352Z,97844.00
2018-06-19T11:31:13.615Z,97846.00
2018-06-19T11:33:55.713Z,97845.00
2018-06-19T11:36:37.242Z,97839.00
2018-06-19T11:39:18.863Z,97845.00
2018-06-19T11:42:00.656Z,97844.00
2018-06-19T11:44:42.213Z,97829.00
2018-06-19T11:47:24.409Z,97828.00
2018-06-19T11:50:05.607Z,97829.00
2018-06-19T11:52:47.112Z,97817.00
2018-06-19T11:55:28.496Z,97820.00
2018-06-19T11:58:10.347Z,97818.00
2018-06-19T12:00:54.036Z,97816.00
2018-06-19T12:03:35.590Z,97829.00
2018-06-19T12:06:16.952Z,97829.00
2018-06-19T12:08:58.495Z,97819.00
2018-06-19T12:11:40.692Z,97823.00
2018-06-19T12:14:24.101Z,97834.00
2018-06-19T12:17:05.686Z,97828.00
2018-06-19T12:19:50.084Z,97829.00
2018-06-19T12:22:31.509Z,97833.00
2018-06-19T12:25:12.883Z,97827.00
2018-06-19T12:27:55.163Z,97828.00
2018-06-19T12:30:36.501Z,97822.00
2018-06-19T12:33:17.823Z,97816.00
2018-06-19T12:35:59.280Z,97828.00
2018-06-19T12:38:40.591Z,97829.00
2018-06-19T12:41:22.803Z,97817.00
2018-06-19T12:44:04.288Z,97811.00
2018-06-19T12:46:45.709Z,97816.00
2018-06-19T12:49:44.012Z,97814.00
2018-06-19T12:52:42.473Z,97816.00
2018-06-19T12:55:40.872Z,97813.00
2018-06-19T12:58:23.984Z,97812.00
2018-06-19T13:01:05.580Z,97816.00
2018-06-19T13:04:04.572Z,97804.00
2018-06-19T13:06:46.056Z,97801.00
2018-06-19T13:09:27.764Z,97799.00
2018-06-19T13:14:30.128Z,97797.00
2018-06-19T13:17:28.630Z,97801.00
2018-06-19T13:20:27.032Z,97796.00
2018-06-19T13:23:09.579Z,97799.00
2018-06-19T13:25:51.612Z,97795.00
2018-06-19T13:29:56.159Z,97789.00
2018-06-19T13:32:38.703Z,97785.00
2018-06-19T13:35:20.263Z,97785.00
2018-06-19T13:38:05.116Z,97788.00
2018-06-19T13:41:09.559Z,97781.00
2018-06-19T13:44:13.009Z,97790.00
2018-06-19T13:46:55.968Z,97786.00
2018-06-19T13:49:37.707Z,97783.00
2018-06-19T13:52:19.305Z,97780.00
2018-06-19T13:57:36.036Z,97785.00
2018-06-19T14:00:19.209Z,97784.00
2018-06-19T14:03:01.373Z,97776.00
2018-06-19T14:05:43.130Z,97778.00
2018-06-19T14:08:57.482Z,97780.00
2018-06-19T14:12:00.149Z,97772.00
2018-06-19T14:14:41.634Z,97781.00
2018-06-19T14:17:24.863Z,97776.00
2018-06-19T14:20:06.676Z,97776.00
2018-06-19T14:22:48.146Z,97778.00
2018-06-19T14:25:29.643Z,97777.00
2018-06-19T14:28:11.463Z,97770.00
2018-06-19T14:30:53.789Z,97774.00
2018-06-19T14:33:35.455Z,97769.00
2018-06-19T14:36:17.039Z,97781.00
2018-06-19T14:38:58.729Z,97776.00
2018-06-19T14:41:40.604Z,97775.00
2018-06-19T14:44:25.395Z,97771.00
2018-06-19T14:47:08.040Z,97770.00
2018-06-19T14:49:49.896Z,97771.00
2018-06-19T14:52:32.088Z,97759.00
2018-06-19T14:55:13.809Z,97767.00
2018-06-19T14:57:56.213Z,97756.00
2018-06-19T15:00:37.886Z,97761.00
2018-06-19T15:03:19.284Z,97762.00
2018-06-19T15:06:00.891Z,97758.00
2018-06-19T15:08:42.575Z,97757.00
2018-06-19T15:11:26.051Z,97756.00
2018-06-19T15:14:08.398Z,97765.00
2018-06-19T15:16:49.983Z,97757.00
2018-06-19T15:19:32.085Z,97750.00
2018-06-19T15:22:13.773Z,97751.00
2018-06-19T15:24:56.209Z,97750.00
2018-06-19T15:27:37.793Z,97757.00
2018-06-19T15:30:19.505Z,97746.00
2018-06-19T15:33:02.026Z,97747.00
2018-06-19T15:35:43.875Z,97751.00
2018-06-19T15:38:26.081Z,97751.00
2018-06-19T15:41:08.662Z,97757.00
2018-06-19T15:43:50.903Z,97755.00
2018-06-19T15:46:32.413Z,97759.00
2018-06-19T15:49:14.096Z,97756.00
2018-06-19T15:51:56.726Z,97757.00
2018-06-19T15:54:38.408Z,97757.00
2018-06-19T15:57:20.148Z,97759.00
2018-06-19T16:00:02.086Z,97767.00
2018-06-19T16:02:43.592Z,97760.00
2018-06-19T16:05:26.091Z,97758.00
2018-06-19T16:08:13.026Z,97760.00
2018-06-19T16:10:56.221Z,97762.00
2018-06-19T16:13:37.915Z,97759.00
2018-06-19T16:16:19.505Z,97760.00
2018-06-19T16:19:02.226Z,97761.00
2018-06-19T16:21:44.188Z,97767.00
2018-06-19T16:24:27.002Z,97769.00
2018-06-19T16:27:09.141Z,97771.00
2018-06-19T16:29:50.468Z,97758.00
2018-06-19T16:32:32.014Z,97775.00
2018-06-19T16:35:13.713Z,97771.00
2018-06-19T16:37:56.143Z,97765.00
2018-06-19T16:40:37.809Z,97770.00
2018-06-19T16:43:19.555Z,97766.00
2018-06-19T16:46:01.979Z,97770.00
2018-06-19T16:48:43.602Z,97771.00
2018-06-19T16:51:26.540Z,97781.00
2018-06-19T16:54:08.232Z,97777.00
2018-06-19T16:56:49.972Z,97772.00
2018-06-19T16:59:32.424Z,97784.00
2018-06-19T17:02:13.949Z,97778.00
2018-06-19T17:04:56.328Z,97785.00
2018-06-19T17:07:41.415Z,97786.00
2018-06-19T17:10:24.011Z,97794.00
2018-06-19T17:13:05.726Z,97792.00
2018-06-19T17:15:47.183Z,97792.00
2018-06-19T17:18:28.816Z,97790.00
2018-06-19T17:21:10.488Z,97790.00
2018-06-19T17:23:53.163Z,97793.00
2018-06-19T17:26:34.828Z,97784.00
2018-06-19T17:29:16.383Z,97788.00
2018-06-19T17:31:58.030Z,97792.00
2018-06-19T17:34:39.471Z,97785.00
2018-06-19T17:37:20.910Z,97791.00
2018-06-19T17:40:02.388Z,97800.00
2018-06-19T17:42:47.863Z,97791.00
2018-06-19T17:45:29.696Z,97790.00
2018-06-19T17:48:11.156Z,97791.00
2018-06-19T17:50:53.810Z,97795.00
2018-06-19T17:53:35.022Z,97791.00
2018-06-19T17:56:16.424Z,97790.00
2018-06-19T17:58:57.884Z,97793.00
2018-06-19T18:01:40.243Z,97793.00
2018-06-19T18:04:22.736Z,97794.00
2018-06-19T18:07:04.790Z,97789.00
2018-06-19T18:09:46.345Z,97799.00
2018-06-19T18:12:28.235Z,97797.00
2018-06-19T18:15:09.616Z,97800.00
2018-06-19T18:17:51.020Z,97804.00
2018-06-19T18:20:32.881Z,97815.00
2018-06-19T18:23:14.237Z,97809.00
2018-06-19T18:25:56.542Z,97809.00
2018-06-19T18:28:38.980Z,97814.00
2018-06-19T18:31:21.176Z,97806.00
2018-06-19T18:34:02.469Z,97818.00
2018-06-19T18:36:43.919Z,97816.00
2018-06-19T18:39:26.417Z,97819.00
2018-06-19T18:42:07.752Z,97816.00
2018-06-19T18:44:49.160Z,97825.00
2018-06-19T18:47:31.468Z,97837.00
2018-06-19T18:50:13.625Z,97840.00
2018-06-19T18:52:57.105Z,97838.00
2018-06-19T18:55:38.497Z,97844.00
2018-06-19T18:58:20.860Z,97848.00
2018-06-19T19:01:02.687Z,97851.00
2018-06-19T19:03:43.983Z,97856.00
2018-06-19T19:06:27.005Z,97854.00
2018-06-19T19:09:10.548Z,97858.00
2018-06-19T19:11:52.779Z,97864.00
2018-06-19T19:14:39.365Z,97869.00
2018-06-19T19:17:26.177Z,97872.00
2018-06-19T19:20:07.555Z,97864.00
2018-06-19T19:22:48.912Z,97870.00
2018-06-19T19:25:30.266Z,97881.00
2018-06-19T19:28:17.085Z,97869.00
2018-06-19T19:30:58.658Z,97884.00
2018-06-19T19:33:40.108Z,97878.00
2018-06-19T19:36:26.886Z,97893.00
2018-06-19T19:39:14.771Z,97889.00
2018-06-19T19:41:57.077Z,97887.00
2018-06-19T19:44:38.676Z,97895.00
2018-06-19T19:47:25.541Z,97893.00
2018-06-19T19:50:07.398Z,97895.00
2018-06-19T19:52:48.837Z,97897.00
2018-06-19T19:55:30.244Z,97894.00
2018-06-19T19:58:17.349Z,97898.00
2018-06-19T20:00:58.642Z,97898.00
2018-06-19T20:03:41.886Z,97901.00
2018-06-19T20:06:24.289Z,97901.00
2018-06-19T20:09:08.495Z,97907.00
2018-06-19T20:11:49.882Z,97905.00
2018-06-19T20:14:31.601Z,97908.00
2018-06-19T20:17:12.787Z,97902.00
2018-06-19T20:19:55.507Z,97910.00
2018-06-19T20:22:36.939Z,97914.00
2018-06-19T20:25:18.437Z,97917.00
2018-06-19T20:27:59.872Z,97920.00
2018-06-19T20:30:41.209Z,97922.00
2018-06-19T20:33:22.849Z,97921.00
2018-06-19T20:36:04.411Z,97917.00
2018-06-19T20:38:45.955Z,97925.00
2018-06-19T20:41:27.705Z,97931.00
2018-06-19T20:44:09.212Z,97929.00
2018-06-19T20:46:50.519Z,97931.00
2018-06-19T20:49:32.620Z,97930.00
2018-06-19T20:52:14.075Z,97934.00
2018-06-19T20:54:56.569Z,97942.00
2018-06-19T20:57:38.310Z,97940.00
2018-06-19T21:00:19.655Z,97947.00
2018-06-19T21:03:01.095Z,97937.00
2018-06-19T21:05:42.541Z,97942.00
2018-06-19T21:08:29.555Z,97950.00
2018-06-19T21:11:12.777Z,97953.00
2018-06-19T21:13:55.446Z,97951.00
2018-06-19T21:16:37.002Z,97947.00
2018-06-19T21:19:18.923Z,97950.00
2018-06-19T21:22:00.252Z,97949.00
2018-06-19T21:24:41.709Z,97948.00
2018-06-19T21:27:23.725Z,97951.00
2018-06-19T21:30:05.992Z,97950.00
2018-06-19T21:32:47.639Z,97954.00
2018-06-19T21:35:29.238Z,97952.00
2018-06-19T21:38:10.526Z,97943.00
2018-06-19T21:40:52.780Z,97947.00
2018-06-19T21:43:34.273Z,97952.00
2018-06-19T21:46:16.124Z,97946.00
2018-06-19T21:48:58.417Z,97950.00
2018-06-19T21:51:39.976Z,97950.00
2018-06-19T21:54:21.575Z,97958.00
2018-06-19T21:57:03.084Z,97939.00
2018-06-19T21:59:44.591Z,97957.00
2018-06-19T22:02:33.990Z,97948.00
2018-06-19T22:05:15.272Z,97952.00
2018-06-19T22:07:57.053Z,97962.00
2018-06-19T22:10:38.457Z,97954.00
2018-06-19T22:13:19.768Z,97947.00
2018-06-19T22:16:02.000Z,97954.00
2018-06-19T22:18:43.527Z,97954.00
2018-06-19T22:21:36.973Z,97959.00
2018-06-19T22:24:18.471Z,97961.00
2018-06-19T22:27:00.400Z,97959.00
2018-06-19T22:29:42.554Z,97968.00
2018-06-19T22:32:24.752Z,97964.00
2018-06-19T22:35:06.320Z,97966.00
2018-06-19T22:37:47.681Z,97961.00
2018-06-19T22:40:28.985Z,97959.00
2018-06-19T22:43:10.444Z,97966.00
2018-06-19T22:45:51.699Z,97967.00
2018-06-19T22:48:33.369Z,97973.00
2018-06-19T22:51:14.759Z,97970.00
2018-06-19T22:53:57.143Z,97978.00
2018-06-19T22:56:38.535Z,97970.00
2018-06-19T22:59:19.859Z,97968.00
2018-06-19T23:02:01.267Z,97982.00
2018-06-19T23:04:42.577Z,97982.00
2018-06-19T23:07:24.624Z,97979.00
2018-06-19T23:10:06.044Z,97969.00
2018-06-19T23:12:47.324Z,97975.00
2018-06-19T23:15:28.661Z,97971.00
2018-06-19T23:18:10.049Z,97980.00
2018-06-19T23:20:53.012Z,97976.00
2018-06-19T23:23:34.292Z,97977.00
2018-06-19T23:26:15.705Z,97977.00
2018-06-19T23:28:57.540Z,97978.00
2018-06-19T23:31:38.736Z,97980.00
2018-06-19T23:34:20.213Z,97982.00
2018-06-19T23:37:01.555Z,97973.00
2018-06-19T23:39:42.829Z,97976.00
2018-06-19T23:42:24.667Z,97977.00
2018-06-19T23:45:06.303Z,97979.00
2018-06-19T23:47:47.644Z,97974.00
2018-06-19T23:50:28.949Z,97970.00
2018-06-19T23:53:10.281Z,97976.00
2018-06-19T23:55:51.570Z,97979.00
2018-06-19T23:58:32.966Z,97984.00
